sensor_id;sensor_type;location;lat;lon;timestamp;P1;durP1;ratioP1;P2;durP2;ratioP2
27847;SDS011;15212;48.830;8.730;2023-07-29T00:01:11;2.55;;;0.80;;
27847;SDS011;15212;48.830;8.730;2023-07-29T00:03:40;0.70;;;0.70;;
27847;SDS011;15212;48.830;8.730;2023-07-29T00:06:09;3.83;;;0.90;;
27847;SDS011;15212;48.830;8.730;2023-07-29T00:08:37;2.80;;;1.65;;
27847;SDS011;15212;48.830;8.730;2023-07-29T00:11:06;2.77;;;0.72;;
27847;SDS011;15212;48.830;8.730;2023-07-29T00:13:34;1.27;;;0.95;;
27847;SDS011;15212;48.830;8.730;2023-07-29T00:16:02;1.10;;;0.90;;
27847;SDS011;15212;48.830;8.730;2023-07-29T00:18:32;3.10;;;1.00;;
27847;SDS011;15212;48.830;8.730;2023-07-29T00:21:00;2.00;;;0.80;;
27847;SDS011;15212;48.830;8.730;2023-07-29T00:23:28;2.25;;;0.90;;
27847;SDS011;15212;48.830;8.730;2023-07-29T00:25:57;1.67;;;0.90;;
27847;SDS011;15212;48.830;8.730;2023-07-29T00:28:25;1.25;;;1.00;;
27847;SDS011;15212;48.830;8.730;2023-07-29T00:30:54;4.22;;;0.70;;
27847;SDS011;15212;48.830;8.730;2023-07-29T00:33:22;1.57;;;0.95;;
27847;SDS011;15212;48.830;8.730;2023-07-29T00:35:50;2.72;;;0.93;;
27847;SDS011;15212;48.830;8.730;2023-07-29T00:38:19;2.10;;;0.90;;
27847;SDS011;15212;48.830;8.730;2023-07-29T00:40:47;1.17;;;0.82;;
27847;SDS011;15212;48.830;8.730;2023-07-29T00:43:16;1.32;;;0.90;;
27847;SDS011;15212;48.830;8.730;2023-07-29T00:45:44;1.32;;;0.90;;
27847;SDS011;15212;48.830;8.730;2023-07-29T00:48:14;1.42;;;0.95;;
27847;SDS011;15212;48.830;8.730;2023-07-29T00:50:42;4.10;;;0.80;;
27847;SDS011;15212;48.830;8.730;2023-07-29T00:53:11;1.17;;;1.00;;
27847;SDS011;15212;48.830;8.730;2023-07-29T00:55:40;3.02;;;0.90;;
27847;SDS011;15212;48.830;8.730;2023-07-29T00:58:09;2.17;;;1.00;;
27847;SDS011;15212;48.830;8.730;2023-07-29T01:00:38;1.12;;;1.00;;
27847;SDS011;15212;48.830;8.730;2023-07-29T01:03:07;1.87;;;0.90;;
27847;SDS011;15212;48.830;8.730;2023-07-29T01:05:41;1.25;;;0.95;;
27847;SDS011;15212;48.830;8.730;2023-07-29T01:08:20;0.80;;;0.75;;
27847;SDS011;15212;48.830;8.730;2023-07-29T01:13:37;2.25;;;1.15;;
27847;SDS011;15212;48.830;8.730;2023-07-29T01:16:15;2.37;;;1.20;;
27847;SDS011;15212;48.830;8.730;2023-07-29T01:18:47;2.75;;;1.30;;
27847;SDS011;15212;48.830;8.730;2023-07-29T01:21:19;3.25;;;1.07;;
27847;SDS011;15212;48.830;8.730;2023-07-29T01:23:52;2.55;;;1.25;;
27847;SDS011;15212;48.830;8.730;2023-07-29T01:26:25;5.45;;;1.20;;
27847;SDS011;15212;48.830;8.730;2023-07-29T01:28:56;3.00;;;1.02;;
27847;SDS011;15212;48.830;8.730;2023-07-29T01:31:31;4.55;;;1.30;;
27847;SDS011;15212;48.830;8.730;2023-07-29T01:34:17;2.47;;;1.10;;
27847;SDS011;15212;48.830;8.730;2023-07-29T01:36:51;3.05;;;1.55;;
27847;SDS011;15212;48.830;8.730;2023-07-29T01:39:21;3.72;;;1.40;;
27847;SDS011;15212;48.830;8.730;2023-07-29T01:41:52;2.65;;;1.50;;
27847;SDS011;15212;48.830;8.730;2023-07-29T01:44:21;2.17;;;1.17;;
27847;SDS011;15212;48.830;8.730;2023-07-29T01:46:50;1.80;;;1.30;;
27847;SDS011;15212;48.830;8.730;2023-07-29T01:49:18;1.87;;;1.32;;
27847;SDS011;15212;48.830;8.730;2023-07-29T01:51:46;4.20;;;1.30;;
27847;SDS011;15212;48.830;8.730;2023-07-29T01:54:15;2.33;;;1.45;;
27847;SDS011;15212;48.830;8.730;2023-07-29T01:56:43;3.02;;;1.12;;
27847;SDS011;15212;48.830;8.730;2023-07-29T01:59:12;3.45;;;1.37;;
27847;SDS011;15212;48.830;8.730;2023-07-29T02:01:41;1.95;;;1.40;;
27847;SDS011;15212;48.830;8.730;2023-07-29T02:04:11;1.62;;;1.20;;
27847;SDS011;15212;48.830;8.730;2023-07-29T02:06:40;5.05;;;1.60;;
27847;SDS011;15212;48.830;8.730;2023-07-29T02:09:08;2.92;;;1.30;;
27847;SDS011;15212;48.830;8.730;2023-07-29T02:11:37;2.70;;;1.40;;
27847;SDS011;15212;48.830;8.730;2023-07-29T02:14:05;1.77;;;1.42;;
27847;SDS011;15212;48.830;8.730;2023-07-29T02:16:34;3.25;;;1.22;;
27847;SDS011;15212;48.830;8.730;2023-07-29T02:19:03;3.47;;;1.52;;
27847;SDS011;15212;48.830;8.730;2023-07-29T02:21:32;1.47;;;1.25;;
27847;SDS011;15212;48.830;8.730;2023-07-29T02:24:00;2.80;;;1.62;;
27847;SDS011;15212;48.830;8.730;2023-07-29T02:26:28;1.92;;;1.10;;
27847;SDS011;15212;48.830;8.730;2023-07-29T02:28:57;4.53;;;1.30;;
27847;SDS011;15212;48.830;8.730;2023-07-29T02:31:25;3.17;;;1.40;;
27847;SDS011;15212;48.830;8.730;2023-07-29T02:33:54;3.27;;;1.40;;
27847;SDS011;15212;48.830;8.730;2023-07-29T02:36:22;3.15;;;1.35;;
27847;SDS011;15212;48.830;8.730;2023-07-29T02:38:50;2.02;;;1.50;;
27847;SDS011;15212;48.830;8.730;2023-07-29T02:41:19;1.77;;;1.30;;
27847;SDS011;15212;48.830;8.730;2023-07-29T02:43:50;2.80;;;1.10;;
27847;SDS011;15212;48.830;8.730;2023-07-29T02:46:19;1.50;;;1.05;;
27847;SDS011;15212;48.830;8.730;2023-07-29T02:48:47;2.30;;;1.40;;
27847;SDS011;15212;48.830;8.730;2023-07-29T02:51:16;2.30;;;0.90;;
27847;SDS011;15212;48.830;8.730;2023-07-29T02:53:44;2.15;;;1.20;;
27847;SDS011;15212;48.830;8.730;2023-07-29T02:56:13;2.55;;;1.12;;
27847;SDS011;15212;48.830;8.730;2023-07-29T02:58:41;1.92;;;1.20;;
27847;SDS011;15212;48.830;8.730;2023-07-29T03:01:10;1.40;;;1.10;;
27847;SDS011;15212;48.830;8.730;2023-07-29T03:03:39;2.67;;;1.07;;
27847;SDS011;15212;48.830;8.730;2023-07-29T03:06:08;1.42;;;0.98;;
27847;SDS011;15212;48.830;8.730;2023-07-29T03:08:38;1.82;;;1.10;;
27847;SDS011;15212;48.830;8.730;2023-07-29T03:11:07;3.10;;;1.00;;
27847;SDS011;15212;48.830;8.730;2023-07-29T03:13:41;1.72;;;1.10;;
27847;SDS011;15212;48.830;8.730;2023-07-29T03:16:13;3.95;;;1.10;;
27847;SDS011;15212;48.830;8.730;2023-07-29T03:18:44;1.55;;;1.05;;
27847;SDS011;15212;48.830;8.730;2023-07-29T03:21:13;1.12;;;0.90;;
27847;SDS011;15212;48.830;8.730;2023-07-29T03:23:41;1.57;;;1.22;;
27847;SDS011;15212;48.830;8.730;2023-07-29T03:26:10;3.47;;;1.15;;
27847;SDS011;15212;48.830;8.730;2023-07-29T03:28:39;4.08;;;1.45;;
27847;SDS011;15212;48.830;8.730;2023-07-29T03:31:09;6.30;;;1.20;;
27847;SDS011;15212;48.830;8.730;2023-07-29T03:33:38;2.77;;;1.20;;
27847;SDS011;15212;48.830;8.730;2023-07-29T03:36:07;4.37;;;1.32;;
27847;SDS011;15212;48.830;8.730;2023-07-29T03:38:35;1.95;;;1.10;;
27847;SDS011;15212;48.830;8.730;2023-07-29T03:41:06;1.92;;;1.27;;
27847;SDS011;15212;48.830;8.730;2023-07-29T03:43:35;3.62;;;1.15;;
27847;SDS011;15212;48.830;8.730;2023-07-29T03:46:04;4.47;;;1.27;;
27847;SDS011;15212;48.830;8.730;2023-07-29T03:48:32;4.03;;;1.15;;
27847;SDS011;15212;48.830;8.730;2023-07-29T03:51:00;2.80;;;1.37;;
27847;SDS011;15212;48.830;8.730;2023-07-29T03:53:29;2.42;;;1.40;;
27847;SDS011;15212;48.830;8.730;2023-07-29T03:55:58;1.65;;;1.20;;
27847;SDS011;15212;48.830;8.730;2023-07-29T03:58:26;2.00;;;1.30;;
27847;SDS011;15212;48.830;8.730;2023-07-29T04:00:55;2.17;;;1.40;;
27847;SDS011;15212;48.830;8.730;2023-07-29T04:03:23;1.70;;;1.27;;
27847;SDS011;15212;48.830;8.730;2023-07-29T04:05:52;3.00;;;1.45;;
27847;SDS011;15212;48.830;8.730;2023-07-29T04:08:20;1.85;;;1.32;;
27847;SDS011;15212;48.830;8.730;2023-07-29T04:10:49;4.20;;;1.65;;
27847;SDS011;15212;48.830;8.730;2023-07-29T04:13:17;4.37;;;1.37;;
27847;SDS011;15212;48.830;8.730;2023-07-29T04:15:45;3.25;;;1.30;;
27847;SDS011;15212;48.830;8.730;2023-07-29T04:18:14;4.40;;;1.42;;
27847;SDS011;15212;48.830;8.730;2023-07-29T04:20:42;3.95;;;1.65;;
27847;SDS011;15212;48.830;8.730;2023-07-29T04:23:11;7.97;;;2.00;;
27847;SDS011;15212;48.830;8.730;2023-07-29T04:25:40;5.35;;;1.95;;
27847;SDS011;15212;48.830;8.730;2023-07-29T04:28:08;5.85;;;1.70;;
27847;SDS011;15212;48.830;8.730;2023-07-29T04:30:37;3.33;;;1.50;;
27847;SDS011;15212;48.830;8.730;2023-07-29T04:33:05;3.62;;;1.70;;
27847;SDS011;15212;48.830;8.730;2023-07-29T04:35:33;4.95;;;1.70;;
27847;SDS011;15212;48.830;8.730;2023-07-29T04:38:02;4.95;;;1.60;;
27847;SDS011;15212;48.830;8.730;2023-07-29T04:40:32;2.98;;;1.52;;
27847;SDS011;15212;48.830;8.730;2023-07-29T04:43:01;4.80;;;1.60;;
27847;SDS011;15212;48.830;8.730;2023-07-29T04:45:29;3.22;;;1.50;;
27847;SDS011;15212;48.830;8.730;2023-07-29T04:47:58;2.92;;;1.50;;
27847;SDS011;15212;48.830;8.730;2023-07-29T04:50:27;3.62;;;1.70;;
27847;SDS011;15212;48.830;8.730;2023-07-29T04:52:55;2.15;;;1.37;;
27847;SDS011;15212;48.830;8.730;2023-07-29T04:55:24;5.67;;;1.77;;
27847;SDS011;15212;48.830;8.730;2023-07-29T04:57:52;2.37;;;1.50;;
27847;SDS011;15212;48.830;8.730;2023-07-29T05:00:21;2.87;;;1.90;;
27847;SDS011;15212;48.830;8.730;2023-07-29T05:02:49;2.87;;;1.70;;
27847;SDS011;15212;48.830;8.730;2023-07-29T05:05:17;4.17;;;1.85;;
27847;SDS011;15212;48.830;8.730;2023-07-29T05:07:46;3.25;;;1.50;;
27847;SDS011;15212;48.830;8.730;2023-07-29T05:10:14;2.50;;;1.70;;
27847;SDS011;15212;48.830;8.730;2023-07-29T05:12:42;2.80;;;1.30;;
27847;SDS011;15212;48.830;8.730;2023-07-29T05:15:11;5.45;;;1.57;;
27847;SDS011;15212;48.830;8.730;2023-07-29T05:17:39;4.45;;;1.40;;
27847;SDS011;15212;48.830;8.730;2023-07-29T05:20:08;2.55;;;1.77;;
27847;SDS011;15212;48.830;8.730;2023-07-29T05:22:37;1.87;;;1.30;;
27847;SDS011;15212;48.830;8.730;2023-07-29T05:25:05;2.60;;;1.40;;
27847;SDS011;15212;48.830;8.730;2023-07-29T05:27:35;1.85;;;1.40;;
27847;SDS011;15212;48.830;8.730;2023-07-29T05:30:03;1.65;;;1.20;;
27847;SDS011;15212;48.830;8.730;2023-07-29T05:32:33;1.32;;;0.93;;
27847;SDS011;15212;48.830;8.730;2023-07-29T05:35:01;2.02;;;1.30;;
27847;SDS011;15212;48.830;8.730;2023-07-29T05:37:30;1.30;;;1.10;;
27847;SDS011;15212;48.830;8.730;2023-07-29T05:39:58;1.85;;;1.30;;
27847;SDS011;15212;48.830;8.730;2023-07-29T05:42:27;3.20;;;1.30;;
27847;SDS011;15212;48.830;8.730;2023-07-29T05:44:55;2.85;;;1.02;;
27847;SDS011;15212;48.830;8.730;2023-07-29T05:47:23;3.17;;;1.17;;
27847;SDS011;15212;48.830;8.730;2023-07-29T05:49:52;2.70;;;1.17;;
27847;SDS011;15212;48.830;8.730;2023-07-29T05:52:20;1.92;;;1.37;;
27847;SDS011;15212;48.830;8.730;2023-07-29T05:54:49;1.50;;;1.10;;
27847;SDS011;15212;48.830;8.730;2023-07-29T05:57:17;2.05;;;1.10;;
27847;SDS011;15212;48.830;8.730;2023-07-29T05:59:46;2.12;;;1.27;;
27847;SDS011;15212;48.830;8.730;2023-07-29T06:02:14;3.05;;;1.20;;
27847;SDS011;15212;48.830;8.730;2023-07-29T06:04:42;1.75;;;1.20;;
27847;SDS011;15212;48.830;8.730;2023-07-29T06:07:11;2.58;;;1.25;;
27847;SDS011;15212;48.830;8.730;2023-07-29T06:09:39;2.25;;;1.20;;
27847;SDS011;15212;48.830;8.730;2023-07-29T06:12:08;1.60;;;1.45;;
27847;SDS011;15212;48.830;8.730;2023-07-29T06:14:36;2.17;;;1.30;;
27847;SDS011;15212;48.830;8.730;2023-07-29T06:17:05;1.95;;;1.20;;
27847;SDS011;15212;48.830;8.730;2023-07-29T06:19:33;2.85;;;1.47;;
27847;SDS011;15212;48.830;8.730;2023-07-29T06:22:01;4.33;;;1.40;;
27847;SDS011;15212;48.830;8.730;2023-07-29T06:24:31;1.87;;;1.20;;
27847;SDS011;15212;48.830;8.730;2023-07-29T06:26:59;2.42;;;1.57;;
27847;SDS011;15212;48.830;8.730;2023-07-29T06:29:28;3.85;;;1.50;;
27847;SDS011;15212;48.830;8.730;2023-07-29T06:31:58;3.37;;;1.50;;
27847;SDS011;15212;48.830;8.730;2023-07-29T06:34:26;4.17;;;1.85;;
27847;SDS011;15212;48.830;8.730;2023-07-29T06:36:54;2.25;;;1.50;;
27847;SDS011;15212;48.830;8.730;2023-07-29T06:39:23;2.75;;;1.55;;
27847;SDS011;15212;48.830;8.730;2023-07-29T06:41:51;2.25;;;1.40;;
27847;SDS011;15212;48.830;8.730;2023-07-29T06:44:20;2.17;;;1.37;;
27847;SDS011;15212;48.830;8.730;2023-07-29T06:46:48;2.02;;;1.15;;
27847;SDS011;15212;48.830;8.730;2023-07-29T06:49:17;4.03;;;1.15;;
27847;SDS011;15212;48.830;8.730;2023-07-29T06:51:45;2.98;;;1.65;;
27847;SDS011;15212;48.830;8.730;2023-07-29T06:54:13;2.65;;;1.40;;
27847;SDS011;15212;48.830;8.730;2023-07-29T06:56:43;1.75;;;1.25;;
27847;SDS011;15212;48.830;8.730;2023-07-29T06:59:12;1.90;;;1.35;;
27847;SDS011;15212;48.830;8.730;2023-07-29T07:01:40;2.00;;;1.40;;
27847;SDS011;15212;48.830;8.730;2023-07-29T07:04:08;2.30;;;1.35;;
27847;SDS011;15212;48.830;8.730;2023-07-29T07:06:37;3.02;;;1.60;;
27847;SDS011;15212;48.830;8.730;2023-07-29T07:09:05;2.15;;;1.27;;
27847;SDS011;15212;48.830;8.730;2023-07-29T07:11:34;2.15;;;1.40;;
27847;SDS011;15212;48.830;8.730;2023-07-29T07:14:02;1.87;;;1.20;;
27847;SDS011;15212;48.830;8.730;2023-07-29T07:16:30;1.77;;;1.10;;
27847;SDS011;15212;48.830;8.730;2023-07-29T07:18:59;1.77;;;1.10;;
27847;SDS011;15212;48.830;8.730;2023-07-29T07:21:27;1.80;;;1.17;;
27847;SDS011;15212;48.830;8.730;2023-07-29T07:23:55;2.58;;;1.20;;
27847;SDS011;15212;48.830;8.730;2023-07-29T07:26:24;1.85;;;1.12;;
27847;SDS011;15212;48.830;8.730;2023-07-29T07:28:52;2.47;;;1.22;;
27847;SDS011;15212;48.830;8.730;2023-07-29T07:31:21;1.65;;;1.10;;
27847;SDS011;15212;48.830;8.730;2023-07-29T07:33:50;1.87;;;1.65;;
27847;SDS011;15212;48.830;8.730;2023-07-29T07:36:19;1.50;;;1.15;;
27847;SDS011;15212;48.830;8.730;2023-07-29T07:38:47;1.52;;;1.30;;
27847;SDS011;15212;48.830;8.730;2023-07-29T07:41:15;2.72;;;1.30;;
27847;SDS011;15212;48.830;8.730;2023-07-29T07:43:44;1.85;;;1.00;;
27847;SDS011;15212;48.830;8.730;2023-07-29T07:46:12;1.27;;;1.00;;
27847;SDS011;15212;48.830;8.730;2023-07-29T07:48:40;1.60;;;1.10;;
27847;SDS011;15212;48.830;8.730;2023-07-29T07:51:09;2.35;;;1.17;;
27847;SDS011;15212;48.830;8.730;2023-07-29T07:53:39;5.50;;;1.02;;
27847;SDS011;15212;48.830;8.730;2023-07-29T07:56:07;2.72;;;0.90;;
27847;SDS011;15212;48.830;8.730;2023-07-29T07:58:36;1.10;;;0.82;;
27847;SDS011;15212;48.830;8.730;2023-07-29T08:01:05;1.45;;;0.93;;
27847;SDS011;15212;48.830;8.730;2023-07-29T08:03:35;1.75;;;0.98;;
27847;SDS011;15212;48.830;8.730;2023-07-29T08:06:04;1.27;;;1.10;;
27847;SDS011;15212;48.830;8.730;2023-07-29T08:08:32;2.90;;;1.10;;
27847;SDS011;15212;48.830;8.730;2023-07-29T08:11:01;3.52;;;1.30;;
27847;SDS011;15212;48.830;8.730;2023-07-29T08:13:29;2.15;;;1.10;;
27847;SDS011;15212;48.830;8.730;2023-07-29T08:15:57;2.30;;;1.00;;
27847;SDS011;15212;48.830;8.730;2023-07-29T08:18:26;1.30;;;0.93;;
27847;SDS011;15212;48.830;8.730;2023-07-29T08:20:58;1.52;;;1.25;;
27847;SDS011;15212;48.830;8.730;2023-07-29T08:23:31;1.80;;;1.07;;
27847;SDS011;15212;48.830;8.730;2023-07-29T08:26:03;0.75;;;0.75;;
27847;SDS011;15212;48.830;8.730;2023-07-29T08:28:37;1.20;;;1.00;;
27847;SDS011;15212;48.830;8.730;2023-07-29T08:31:06;2.65;;;1.10;;
27847;SDS011;15212;48.830;8.730;2023-07-29T08:33:34;3.22;;;0.90;;
27847;SDS011;15212;48.830;8.730;2023-07-29T08:36:03;2.45;;;0.98;;
27847;SDS011;15212;48.830;8.730;2023-07-29T08:38:32;1.15;;;0.95;;
27847;SDS011;15212;48.830;8.730;2023-07-29T08:41:10;1.02;;;0.88;;
27847;SDS011;15212;48.830;8.730;2023-07-29T08:46:42;2.27;;;1.00;;
27847;SDS011;15212;48.830;8.730;2023-07-29T08:49:11;1.80;;;1.05;;
27847;SDS011;15212;48.830;8.730;2023-07-29T08:51:41;1.12;;;1.00;;
27847;SDS011;15212;48.830;8.730;2023-07-29T08:54:11;1.10;;;0.90;;
27847;SDS011;15212;48.830;8.730;2023-07-29T08:56:41;2.27;;;1.00;;
27847;SDS011;15212;48.830;8.730;2023-07-29T08:59:10;1.95;;;0.90;;
27847;SDS011;15212;48.830;8.730;2023-07-29T09:01:39;0.95;;;0.80;;
27847;SDS011;15212;48.830;8.730;2023-07-29T09:04:09;1.60;;;1.20;;
27847;SDS011;15212;48.830;8.730;2023-07-29T09:06:37;1.72;;;1.20;;
27847;SDS011;15212;48.830;8.730;2023-07-29T09:09:07;2.02;;;0.90;;
27847;SDS011;15212;48.830;8.730;2023-07-29T09:11:36;1.52;;;1.10;;
27847;SDS011;15212;48.830;8.730;2023-07-29T09:14:04;1.30;;;0.90;;
27847;SDS011;15212;48.830;8.730;2023-07-29T09:16:33;1.95;;;1.00;;
27847;SDS011;15212;48.830;8.730;2023-07-29T09:19:02;1.92;;;1.20;;
27847;SDS011;15212;48.830;8.730;2023-07-29T09:21:31;3.77;;;1.02;;
27847;SDS011;15212;48.830;8.730;2023-07-29T09:24:06;1.67;;;1.17;;
27847;SDS011;15212;48.830;8.730;2023-07-29T09:26:31;2.45;;;1.22;;
27847;SDS011;15212;48.830;8.730;2023-07-29T09:28:59;2.08;;;1.40;;
27847;SDS011;15212;48.830;8.730;2023-07-29T09:31:28;1.62;;;1.30;;
27847;SDS011;15212;48.830;8.730;2023-07-29T09:33:57;2.25;;;1.40;;
27847;SDS011;15212;48.830;8.730;2023-07-29T09:36:32;3.58;;;1.40;;
27847;SDS011;15212;48.830;8.730;2023-07-29T09:39:01;2.00;;;1.15;;
27847;SDS011;15212;48.830;8.730;2023-07-29T09:41:30;1.52;;;1.12;;
27847;SDS011;15212;48.830;8.730;2023-07-29T09:44:00;1.10;;;0.90;;
27847;SDS011;15212;48.830;8.730;2023-07-29T09:46:34;1.50;;;1.10;;
27847;SDS011;15212;48.830;8.730;2023-07-29T09:49:04;1.82;;;1.00;;
27847;SDS011;15212;48.830;8.730;2023-07-29T09:51:37;3.45;;;1.12;;
27847;SDS011;15212;48.830;8.730;2023-07-29T09:54:06;1.60;;;0.85;;
27847;SDS011;15212;48.830;8.730;2023-07-29T09:56:39;1.90;;;0.93;;
27847;SDS011;15212;48.830;8.730;2023-07-29T09:59:10;2.65;;;1.85;;
27847;SDS011;15212;48.830;8.730;2023-07-29T10:01:39;1.70;;;1.20;;
27847;SDS011;15212;48.830;8.730;2023-07-29T10:04:08;3.02;;;1.12;;
27847;SDS011;15212;48.830;8.730;2023-07-29T10:06:38;1.25;;;1.10;;
27847;SDS011;15212;48.830;8.730;2023-07-29T10:09:09;1.40;;;0.98;;
27847;SDS011;15212;48.830;8.730;2023-07-29T10:11:39;4.28;;;1.00;;
27847;SDS011;15212;48.830;8.730;2023-07-29T10:14:09;1.15;;;0.90;;
27847;SDS011;15212;48.830;8.730;2023-07-29T10:16:39;1.32;;;1.10;;
27847;SDS011;15212;48.830;8.730;2023-07-29T10:19:08;1.45;;;1.02;;
27847;SDS011;15212;48.830;8.730;2023-07-29T10:21:38;2.83;;;0.93;;
27847;SDS011;15212;48.830;8.730;2023-07-29T10:24:15;1.95;;;1.10;;
27847;SDS011;15212;48.830;8.730;2023-07-29T10:26:42;1.20;;;1.00;;
27847;SDS011;15212;48.830;8.730;2023-07-29T10:29:22;3.72;;;1.00;;
27847;SDS011;15212;48.830;8.730;2023-07-29T10:31:52;1.40;;;1.00;;
27847;SDS011;15212;48.830;8.730;2023-07-29T10:34:21;1.27;;;0.80;;
27847;SDS011;15212;48.830;8.730;2023-07-29T10:36:50;1.27;;;1.15;;
27847;SDS011;15212;48.830;8.730;2023-07-29T10:39:20;1.05;;;0.80;;
27847;SDS011;15212;48.830;8.730;2023-07-29T10:42:01;0.82;;;0.70;;
27847;SDS011;15212;48.830;8.730;2023-07-29T10:47:27;0.78;;;0.70;;
27847;SDS011;15212;48.830;8.730;2023-07-29T10:49:57;1.12;;;0.93;;
27847;SDS011;15212;48.830;8.730;2023-07-29T10:52:30;1.00;;;0.82;;
27847;SDS011;15212;48.830;8.730;2023-07-29T10:55:04;1.05;;;0.90;;
27847;SDS011;15212;48.830;8.730;2023-07-29T10:58:06;1.20;;;0.98;;
27847;SDS011;15212;48.830;8.730;2023-07-29T11:00:45;1.50;;;0.93;;
27847;SDS011;15212;48.830;8.730;2023-07-29T11:03:11;2.30;;;1.00;;
27847;SDS011;15212;48.830;8.730;2023-07-29T11:05:42;2.55;;;0.85;;
27847;SDS011;15212;48.830;8.730;2023-07-29T11:08:26;3.60;;;1.20;;
27847;SDS011;15212;48.830;8.730;2023-07-29T11:13:32;2.15;;;1.00;;
27847;SDS011;15212;48.830;8.730;2023-07-29T11:16:03;1.32;;;1.00;;
27847;SDS011;15212;48.830;8.730;2023-07-29T11:18:33;1.22;;;1.10;;
27847;SDS011;15212;48.830;8.730;2023-07-29T11:21:03;1.77;;;1.20;;
27847;SDS011;15212;48.830;8.730;2023-07-29T11:23:33;1.47;;;1.02;;
27847;SDS011;15212;48.830;8.730;2023-07-29T11:26:04;1.67;;;1.20;;
27847;SDS011;15212;48.830;8.730;2023-07-29T11:28:37;3.12;;;1.22;;
27847;SDS011;15212;48.830;8.730;2023-07-29T11:31:06;1.40;;;1.20;;
27847;SDS011;15212;48.830;8.730;2023-07-29T11:33:38;3.02;;;1.50;;
27847;SDS011;15212;48.830;8.730;2023-07-29T11:36:06;1.95;;;1.40;;
27847;SDS011;15212;48.830;8.730;2023-07-29T11:38:37;1.42;;;1.27;;
27847;SDS011;15212;48.830;8.730;2023-07-29T11:41:07;1.67;;;1.10;;
27847;SDS011;15212;48.830;8.730;2023-07-29T11:43:36;2.15;;;1.32;;
27847;SDS011;15212;48.830;8.730;2023-07-29T11:46:04;1.80;;;1.25;;
27847;SDS011;15212;48.830;8.730;2023-07-29T11:48:33;2.35;;;1.40;;
27847;SDS011;15212;48.830;8.730;2023-07-29T11:51:02;3.12;;;1.37;;
27847;SDS011;15212;48.830;8.730;2023-07-29T11:53:30;2.02;;;1.45;;
27847;SDS011;15212;48.830;8.730;2023-07-29T11:55:59;1.45;;;1.10;;
27847;SDS011;15212;48.830;8.730;2023-07-29T11:58:27;3.98;;;1.60;;
27847;SDS011;15212;48.830;8.730;2023-07-29T12:00:56;1.90;;;1.50;;
27847;SDS011;15212;48.830;8.730;2023-07-29T12:03:25;4.30;;;1.67;;
27847;SDS011;15212;48.830;8.730;2023-07-29T12:05:54;2.58;;;1.50;;
27847;SDS011;15212;48.830;8.730;2023-07-29T12:08:22;3.02;;;1.32;;
27847;SDS011;15212;48.830;8.730;2023-07-29T12:10:50;2.20;;;1.37;;
27847;SDS011;15212;48.830;8.730;2023-07-29T12:13:19;2.12;;;1.50;;
27847;SDS011;15212;48.830;8.730;2023-07-29T12:15:51;2.08;;;1.57;;
27847;SDS011;15212;48.830;8.730;2023-07-29T12:18:19;2.17;;;1.50;;
27847;SDS011;15212;48.830;8.730;2023-07-29T12:20:52;3.35;;;1.42;;
27847;SDS011;15212;48.830;8.730;2023-07-29T12:23:24;2.15;;;1.60;;
27847;SDS011;15212;48.830;8.730;2023-07-29T12:25:57;2.15;;;1.30;;
27847;SDS011;15212;48.830;8.730;2023-07-29T12:28:27;3.02;;;1.70;;
27847;SDS011;15212;48.830;8.730;2023-07-29T12:30:56;1.70;;;1.32;;
27847;SDS011;15212;48.830;8.730;2023-07-29T12:33:35;3.40;;;1.47;;
27847;SDS011;15212;48.830;8.730;2023-07-29T12:36:08;1.82;;;1.50;;
27847;SDS011;15212;48.830;8.730;2023-07-29T12:38:36;2.22;;;1.47;;
27847;SDS011;15212;48.830;8.730;2023-07-29T12:41:04;2.62;;;1.80;;
27847;SDS011;15212;48.830;8.730;2023-07-29T12:43:33;1.45;;;1.25;;
27847;SDS011;15212;48.830;8.730;2023-07-29T12:46:01;1.82;;;1.40;;
27847;SDS011;15212;48.830;8.730;2023-07-29T12:48:30;2.30;;;1.42;;
27847;SDS011;15212;48.830;8.730;2023-07-29T12:50:58;3.58;;;1.50;;
27847;SDS011;15212;48.830;8.730;2023-07-29T12:53:27;3.70;;;1.67;;
27847;SDS011;15212;48.830;8.730;2023-07-29T12:55:55;2.27;;;1.40;;
27847;SDS011;15212;48.830;8.730;2023-07-29T12:58:23;2.02;;;1.40;;
27847;SDS011;15212;48.830;8.730;2023-07-29T13:00:52;2.47;;;1.40;;
27847;SDS011;15212;48.830;8.730;2023-07-29T13:03:20;1.77;;;1.57;;
27847;SDS011;15212;48.830;8.730;2023-07-29T13:05:48;3.80;;;1.50;;
27847;SDS011;15212;48.830;8.730;2023-07-29T13:08:17;1.87;;;1.40;;
27847;SDS011;15212;48.830;8.730;2023-07-29T13:10:45;2.52;;;1.40;;
27847;SDS011;15212;48.830;8.730;2023-07-29T13:13:14;1.70;;;1.37;;
27847;SDS011;15212;48.830;8.730;2023-07-29T13:15:42;1.77;;;1.20;;
27847;SDS011;15212;48.830;8.730;2023-07-29T13:18:10;1.77;;;1.22;;
27847;SDS011;15212;48.830;8.730;2023-07-29T13:20:39;2.37;;;1.27;;
27847;SDS011;15212;48.830;8.730;2023-07-29T13:23:07;2.87;;;1.50;;
27847;SDS011;15212;48.830;8.730;2023-07-29T13:25:35;2.50;;;1.40;;
27847;SDS011;15212;48.830;8.730;2023-07-29T13:28:04;2.37;;;1.30;;
27847;SDS011;15212;48.830;8.730;2023-07-29T13:30:33;2.35;;;1.57;;
27847;SDS011;15212;48.830;8.730;2023-07-29T13:33:01;1.80;;;1.20;;
27847;SDS011;15212;48.830;8.730;2023-07-29T13:35:30;2.35;;;1.65;;
27847;SDS011;15212;48.830;8.730;2023-07-29T13:37:58;2.65;;;1.42;;
27847;SDS011;15212;48.830;8.730;2023-07-29T13:40:28;3.05;;;1.52;;
27847;SDS011;15212;48.830;8.730;2023-07-29T13:42:57;2.98;;;1.55;;
27847;SDS011;15212;48.830;8.730;2023-07-29T13:45:26;3.20;;;1.50;;
27847;SDS011;15212;48.830;8.730;2023-07-29T13:47:54;3.37;;;1.60;;
27847;SDS011;15212;48.830;8.730;2023-07-29T13:50:23;2.67;;;1.52;;
27847;SDS011;15212;48.830;8.730;2023-07-29T13:52:51;2.35;;;1.35;;
27847;SDS011;15212;48.830;8.730;2023-07-29T13:55:19;2.00;;;1.40;;
27847;SDS011;15212;48.830;8.730;2023-07-29T13:57:48;2.90;;;1.50;;
27847;SDS011;15212;48.830;8.730;2023-07-29T14:00:16;3.40;;;1.80;;
27847;SDS011;15212;48.830;8.730;2023-07-29T14:02:45;2.45;;;1.52;;
27847;SDS011;15212;48.830;8.730;2023-07-29T14:05:13;2.27;;;1.50;;
27847;SDS011;15212;48.830;8.730;2023-07-29T14:07:42;2.25;;;1.52;;
27847;SDS011;15212;48.830;8.730;2023-07-29T14:10:10;2.27;;;1.37;;
27847;SDS011;15212;48.830;8.730;2023-07-29T14:12:38;2.47;;;1.47;;
27847;SDS011;15212;48.830;8.730;2023-07-29T14:15:07;4.30;;;1.67;;
27847;SDS011;15212;48.830;8.730;2023-07-29T14:17:36;2.02;;;1.70;;
27847;SDS011;15212;48.830;8.730;2023-07-29T14:20:04;2.12;;;1.52;;
27847;SDS011;15212;48.830;8.730;2023-07-29T14:22:35;2.10;;;1.60;;
27847;SDS011;15212;48.830;8.730;2023-07-29T14:25:03;2.35;;;1.40;;
27847;SDS011;15212;48.830;8.730;2023-07-29T14:27:33;2.35;;;1.67;;
27847;SDS011;15212;48.830;8.730;2023-07-29T14:30:01;3.40;;;1.72;;
27847;SDS011;15212;48.830;8.730;2023-07-29T14:32:31;1.98;;;1.40;;
27847;SDS011;15212;48.830;8.730;2023-07-29T14:35:00;1.87;;;1.50;;
27847;SDS011;15212;48.830;8.730;2023-07-29T14:37:32;2.15;;;1.55;;
27847;SDS011;15212;48.830;8.730;2023-07-29T14:40:01;4.62;;;1.77;;
27847;SDS011;15212;48.830;8.730;2023-07-29T14:42:29;2.17;;;1.70;;
27847;SDS011;15212;48.830;8.730;2023-07-29T14:44:58;2.27;;;1.45;;
27847;SDS011;15212;48.830;8.730;2023-07-29T14:47:26;3.05;;;1.90;;
27847;SDS011;15212;48.830;8.730;2023-07-29T14:49:56;1.92;;;1.57;;
27847;SDS011;15212;48.830;8.730;2023-07-29T14:52:25;2.17;;;1.67;;
27847;SDS011;15212;48.830;8.730;2023-07-29T14:54:53;3.08;;;1.80;;
27847;SDS011;15212;48.830;8.730;2023-07-29T14:57:21;3.75;;;1.40;;
27847;SDS011;15212;48.830;8.730;2023-07-29T14:59:50;4.15;;;1.65;;
27847;SDS011;15212;48.830;8.730;2023-07-29T15:02:18;3.00;;;1.90;;
27847;SDS011;15212;48.830;8.730;2023-07-29T15:04:48;2.37;;;1.85;;
27847;SDS011;15212;48.830;8.730;2023-07-29T15:07:16;4.40;;;1.90;;
27847;SDS011;15212;48.830;8.730;2023-07-29T15:09:45;2.60;;;1.65;;
27847;SDS011;15212;48.830;8.730;2023-07-29T15:12:14;2.92;;;2.20;;